createdAt,value
2022-09-28T00:02:15.116Z,8.00
2022-09-28T00:04:41.693Z,8.10
2022-09-28T00:07:08.252Z,8.10
2022-09-28T00:09:34.757Z,8.10
2022-09-28T00:12:01.373Z,8.10
2022-09-28T00:14:27.873Z,8.00
2022-09-28T00:16:54.397Z,7.80
2022-09-28T00:19:20.942Z,7.80
2022-09-28T00:21:47.489Z,7.70
2022-09-28T00:24:14.030Z,7.60
2022-09-28T00:26:40.574Z,7.50
2022-09-28T00:29:07.132Z,7.40
2022-09-28T00:31:33.649Z,7.30
2022-09-28T00:34:00.228Z,7.20
2022-09-28T00:36:26.796Z,7.10
2022-09-28T00:38:53.376Z,7.10
2022-09-28T00:41:19.902Z,7.10
2022-09-28T00:43:46.423Z,7.10
2022-09-28T00:46:13.018Z,7.10
2022-09-28T00:48:39.649Z,7.00
2022-09-28T00:51:06.176Z,7.00
2022-09-28T00:53:32.718Z,6.90
2022-09-28T00:55:59.249Z,6.90
2022-09-28T00:58:25.801Z,6.90
2022-09-28T01:00:52.431Z,6.80
2022-09-28T01:03:19.099Z,6.80
2022-09-28T01:05:45.595Z,6.80
2022-09-28T01:08:12.109Z,6.70
2022-09-28T01:10:38.688Z,6.70
2022-09-28T01:13:05.227Z,6.80
2022-09-28T01:15:31.805Z,6.70
2022-09-28T01:17:58.374Z,6.80
2022-09-28T01:20:24.903Z,6.80
2022-09-28T01:22:51.468Z,6.70
2022-09-28T01:25:17.977Z,6.70
2022-09-28T01:27:44.490Z,6.80
2022-09-28T01:30:11.051Z,6.80
2022-09-28T01:32:37.570Z,6.80
2022-09-28T01:35:04.140Z,6.80
2022-09-28T01:37:30.641Z,6.80
2022-09-28T01:39:57.130Z,6.80
2022-09-28T01:42:23.665Z,6.80
2022-09-28T01:44:51.446Z,6.80
2022-09-28T01:47:18.004Z,6.80
2022-09-28T01:49:44.490Z,6.80
2022-09-28T01:52:10.990Z,6.80
2022-09-28T01:54:37.559Z,6.80
2022-09-28T01:57:04.048Z,6.80
2022-09-28T01:59:30.662Z,6.80
2022-09-28T02:01:57.307Z,6.80
2022-09-28T02:04:23.860Z,6.80
2022-09-28T02:06:50.389Z,6.80
2022-09-28T02:09:17.002Z,6.80
2022-09-28T02:11:43.610Z,6.80
2022-09-28T02:14:10.152Z,6.80
2022-09-28T02:16:36.755Z,6.90
2022-09-28T02:19:03.325Z,6.90
2022-09-28T02:21:29.960Z,6.90
2022-09-28T02:23:56.521Z,6.90
2022-09-28T02:26:23.050Z,6.90
2022-09-28T02:28:49.578Z,6.90
2022-09-28T02:31:16.136Z,6.90
2022-09-28T02:33:42.653Z,6.90
2022-09-28T02:36:09.201Z,6.90
2022-09-28T02:38:35.722Z,6.90
2022-09-28T02:41:02.249Z,7.00
2022-09-28T02:43:28.810Z,7.00
2022-09-28T02:45:55.382Z,7.00
2022-09-28T02:48:41.267Z,7.10
2022-09-28T02:51:08.423Z,7.10
2022-09-28T02:53:34.975Z,7.10
2022-09-28T02:56:01.549Z,7.10
2022-09-28T02:58:28.106Z,7.10
2022-09-28T03:00:54.692Z,7.10
2022-09-28T03:03:21.326Z,7.20
2022-09-28T03:05:47.873Z,7.10
2022-09-28T03:08:14.413Z,7.20
2022-09-28T03:10:40.949Z,7.20
2022-09-28T03:13:07.457Z,7.20
2022-09-28T03:15:33.981Z,7.20
2022-09-28T03:18:00.619Z,7.20
2022-09-28T03:20:27.230Z,7.20
2022-09-28T03:23:19.798Z,7.30
2022-09-28T03:25:40.279Z,7.20
2022-09-28T03:28:06.789Z,7.20
2022-09-28T03:30:33.276Z,7.20
2022-09-28T03:32:59.769Z,7.20
2022-09-28T03:35:26.316Z,7.20
2022-09-28T03:37:52.796Z,7.20
2022-09-28T03:40:19.367Z,7.20
2022-09-28T03:42:45.892Z,7.20
2022-09-28T03:45:12.401Z,7.20
2022-09-28T03:47:38.889Z,7.20
2022-09-28T03:50:05.376Z,7.20
2022-09-28T03:52:32.064Z,7.20
2022-09-28T03:54:58.625Z,7.10
2022-09-28T03:57:25.153Z,7.10
2022-09-28T03:59:51.665Z,7.10
2022-09-28T04:02:18.266Z,7.10
2022-09-28T04:04:44.874Z,7.00
2022-09-28T04:07:11.349Z,7.00
2022-09-28T04:09:37.856Z,6.90
2022-09-28T04:12:04.744Z,6.90
2022-09-28T04:14:31.289Z,6.90
2022-09-28T04:16:57.809Z,6.80
2022-09-28T04:19:24.381Z,6.70
2022-09-28T04:21:50.914Z,6.70
2022-09-28T04:24:17.393Z,6.60
2022-09-28T04:26:43.973Z,6.60
2022-09-28T04:29:10.521Z,6.60
2022-09-28T04:31:37.274Z,6.50
2022-09-28T04:34:03.851Z,6.50
2022-09-28T04:36:30.365Z,6.50
2022-09-28T04:38:56.942Z,6.50
2022-09-28T04:41:23.478Z,6.50
2022-09-28T04:43:50.026Z,6.50
2022-09-28T04:46:16.704Z,6.40
2022-09-28T04:48:43.354Z,6.30
2022-09-28T04:51:09.881Z,6.30
2022-09-28T04:53:36.439Z,6.30
2022-09-28T04:56:03.338Z,6.30
2022-09-28T04:58:29.823Z,6.30
2022-09-28T05:00:56.386Z,6.20
2022-09-28T05:03:22.969Z,6.20
2022-09-28T05:05:49.487Z,6.20
2022-09-28T05:08:15.979Z,6.10
2022-09-28T05:10:42.512Z,6.10
2022-09-28T05:13:09.111Z,6.10
2022-09-28T05:15:35.618Z,6.10
2022-09-28T05:18:02.233Z,6.10
2022-09-28T05:20:28.797Z,6.10
2022-09-28T05:22:55.510Z,6.10
2022-09-28T05:25:22.060Z,6.10
2022-09-28T05:27:48.616Z,6.10
2022-09-28T05:30:15.114Z,6.10
2022-09-28T05:32:41.611Z,6.10
2022-09-28T05:35:08.122Z,6.10
2022-09-28T05:37:34.627Z,6.10
2022-09-28T05:40:01.252Z,6.10
2022-09-28T05:42:27.782Z,6.10
2022-09-28T05:44:54.400Z,6.10
2022-09-28T05:47:20.924Z,6.10
2022-09-28T05:49:47.474Z,6.20
2022-09-28T05:52:14.027Z,6.20
2022-09-28T05:54:40.565Z,6.20
2022-09-28T05:57:07.084Z,6.30
2022-09-28T05:59:33.596Z,6.30
2022-09-28T06:02:00.266Z,6.30
2022-09-28T06:04:26.785Z,6.40
2022-09-28T06:06:53.328Z,6.40
2022-09-28T06:09:23.813Z,6.40
2022-09-28T06:11:52.254Z,6.50
2022-09-28T06:14:18.873Z,6.50
2022-09-28T06:16:45.505Z,6.50
2022-09-28T06:19:12.094Z,6.50
2022-09-28T06:21:38.625Z,6.50
2022-09-28T06:24:05.119Z,6.60
2022-09-28T06:26:31.618Z,6.60
2022-09-28T06:28:58.179Z,6.60
2022-09-28T06:31:24.752Z,6.60
2022-09-28T06:33:51.324Z,6.70
2022-09-28T06:36:17.861Z,6.60
2022-09-28T06:38:44.421Z,6.70
2022-09-28T06:41:10.939Z,6.70
2022-09-28T06:43:37.508Z,6.80
2022-09-28T06:46:04.105Z,6.80
2022-09-28T06:48:30.699Z,6.80
2022-09-28T06:50:57.295Z,6.90
2022-09-28T06:53:23.925Z,6.90
2022-09-28T06:55:50.453Z,7.00
2022-09-28T06:58:16.963Z,7.10
2022-09-28T07:00:43.566Z,7.10
2022-09-28T07:03:10.130Z,7.20
2022-09-28T07:05:36.683Z,7.30
2022-09-28T07:08:03.363Z,7.30
2022-09-28T07:10:29.905Z,7.40
2022-09-28T07:12:56.493Z,7.40
2022-09-28T07:15:23.026Z,7.60
2022-09-28T07:18:00.047Z,7.60
2022-09-28T07:20:28.843Z,7.70
2022-09-28T07:22:55.614Z,7.80
2022-09-28T07:25:22.330Z,7.80
2022-09-28T07:27:48.879Z,7.90
2022-09-28T07:30:15.430Z,7.90
2022-09-28T07:32:41.963Z,8.00
2022-09-28T07:35:08.524Z,8.00
2022-09-28T07:37:35.197Z,8.10
2022-09-28T07:40:01.682Z,8.10
2022-09-28T07:42:28.242Z,8.20
2022-09-28T07:44:54.779Z,8.20
2022-09-28T07:47:21.280Z,8.30
2022-09-28T07:49:47.799Z,8.40
2022-09-28T07:52:14.406Z,8.40
2022-09-28T07:54:40.920Z,8.50
2022-09-28T07:57:07.397Z,8.60
2022-09-28T07:59:33.954Z,8.60
2022-09-28T08:02:00.576Z,8.70
2022-09-28T08:04:27.137Z,8.80
2022-09-28T08:06:53.736Z,8.80
2022-09-28T08:09:20.266Z,8.90
2022-09-28T08:11:46.820Z,8.90
2022-09-28T08:14:13.412Z,8.90
2022-09-28T08:16:39.956Z,9.00
2022-09-28T08:19:06.778Z,9.00
2022-09-28T08:21:33.328Z,9.10
2022-09-28T08:23:59.859Z,9.10
2022-09-28T08:26:26.383Z,9.20
2022-09-28T08:28:52.923Z,9.20
2022-09-28T08:31:19.523Z,9.30
2022-09-28T08:33:46.135Z,9.30
2022-09-28T08:36:12.667Z,9.30
2022-09-28T08:38:39.146Z,9.40
2022-09-28T08:41:05.719Z,9.50
2022-09-28T08:43:32.241Z,9.50
2022-09-28T08:45:58.853Z,9.60
2022-09-28T08:48:25.498Z,9.60
2022-09-28T08:50:52.018Z,9.70
2022-09-28T08:53:20.498Z,9.80
2022-09-28T08:55:47.040Z,9.80
2022-09-28T08:58:13.566Z,9.90
2022-09-28T09:00:40.098Z,9.90
2022-09-28T09:03:06.696Z,9.90
2022-09-28T09:05:33.226Z,10.00
2022-09-28T09:07:59.782Z,10.00
2022-09-28T09:10:26.328Z,10.00
2022-09-28T09:15:24.282Z,10.10
2022-09-28T09:17:50.817Z,10.20
2022-09-28T09:20:17.353Z,10.30
2022-09-28T09:22:43.895Z,10.30
2022-09-28T09:25:10.587Z,10.30
2022-09-28T09:27:37.118Z,10.40
2022-09-28T09:30:03.634Z,10.50
2022-09-28T09:32:30.122Z,10.50
2022-09-28T09:34:56.652Z,10.50
2022-09-28T09:37:23.273Z,10.60
2022-09-28T09:39:49.738Z,10.60
2022-09-28T09:42:16.226Z,10.70
2022-09-28T09:44:42.739Z,10.70
2022-09-28T09:47:09.301Z,10.70
2022-09-28T09:49:35.830Z,10.80
2022-09-28T09:52:02.336Z,10.80
2022-09-28T09:54:31.219Z,10.90
2022-09-28T09:56:57.761Z,10.90
2022-09-28T09:59:24.277Z,10.90
2022-09-28T10:01:50.825Z,10.90
2022-09-28T10:04:17.358Z,10.90
2022-09-28T10:06:43.931Z,10.90
2022-09-28T10:09:10.454Z,10.90
2022-09-28T10:11:36.979Z,10.90
2022-09-28T10:14:03.590Z,10.90
2022-09-28T10:16:30.202Z,10.90
2022-09-28T10:18:56.725Z,10.90
2022-09-28T10:21:23.280Z,10.90
2022-09-28T10:23:49.858Z,10.90
2022-09-28T10:26:16.380Z,11.00
2022-09-28T10:28:42.912Z,11.00
2022-09-28T10:33:40.881Z,10.90
2022-09-28T10:36:07.410Z,10.90
2022-09-28T10:38:33.934Z,10.90
2022-09-28T10:41:00.482Z,10.90
2022-09-28T10:43:27.033Z,10.90
2022-09-28T10:45:53.625Z,10.90
2022-09-28T10:48:20.297Z,10.90
2022-09-28T10:50:46.877Z,10.80
2022-09-28T10:53:13.449Z,10.80
2022-09-28T10:55:40.168Z,10.80
2022-09-28T10:58:06.649Z,10.80
2022-09-28T11:00:33.219Z,10.70
2022-09-28T11:03:00.036Z,10.70
2022-09-28T11:05:26.639Z,10.70
2022-09-28T11:07:53.168Z,10.70
2022-09-28T11:10:19.742Z,10.70
2022-09-28T11:12:46.229Z,10.70
2022-09-28T11:15:12.734Z,10.60
2022-09-28T11:17:39.245Z,10.60
2022-09-28T11:20:05.856Z,10.60
2022-09-28T11:22:32.409Z,10.60
2022-09-28T11:24:58.978Z,10.60
2022-09-28T11:27:25.683Z,10.60
2022-09-28T11:29:52.178Z,10.60
2022-09-28T11:32:18.710Z,10.60
2022-09-28T11:34:58.592Z,10.60
2022-09-28T11:37:25.988Z,10.70
2022-09-28T11:39:52.479Z,10.60
2022-09-28T11:42:19.015Z,10.60
2022-09-28T11:44:45.586Z,10.70
2022-09-28T11:47:12.170Z,10.70
2022-09-28T11:49:38.704Z,10.70
2022-09-28T11:52:05.251Z,10.70
2022-09-28T11:54:31.790Z,10.90
2022-09-28T11:56:58.315Z,11.00
2022-09-28T11:59:24.870Z,11.00
2022-09-28T12:01:51.402Z,11.10
2022-09-28T12:04:17.991Z,11.10
2022-09-28T12:06:44.672Z,11.20
2022-09-28T12:09:11.244Z,11.20
2022-09-28T12:11:37.835Z,11.10
2022-09-28T12:14:04.441Z,11.20
2022-09-28T12:17:04.849Z,11.10
2022-09-28T12:19:17.576Z,11.20
2022-09-28T12:21:44.203Z,11.10
2022-09-28T12:24:10.687Z,11.10
2022-09-28T12:26:38.094Z,11.10
2022-09-28T12:29:04.683Z,11.10
2022-09-28T12:31:31.234Z,11.10
2022-09-28T12:33:57.706Z,11.10
2022-09-28T12:36:24.233Z,11.10
2022-09-28T12:39:08.549Z,11.10
2022-09-28T12:41:37.284Z,11.10
2022-09-28T12:44:03.803Z,11.10
2022-09-28T12:46:30.367Z,11.10
2022-09-28T12:49:24.382Z,11.10
2022-09-28T12:51:43.544Z,11.10
2022-09-28T12:54:10.066Z,11.10
2022-09-28T12:56:36.591Z,11.20
2022-09-28T12:59:03.153Z,11.20
2022-09-28T13:01:29.731Z,11.20
2022-09-28T13:03:56.299Z,11.30
2022-09-28T13:06:22.841Z,11.30
2022-09-28T13:08:49.365Z,11.30
2022-09-28T13:11:15.882Z,11.40
2022-09-28T13:13:42.499Z,11.40
2022-09-28T13:16:09.085Z,11.40
2022-09-28T13:18:35.663Z,11.40
2022-09-28T13:21:02.251Z,11.40
2022-09-28T13:23:28.780Z,11.40
2022-09-28T13:25:55.268Z,11.40
2022-09-28T13:28:26.290Z,11.40
2022-09-28T13:30:53.712Z,11.30
2022-09-28T13:33:20.344Z,11.30
2022-09-28T13:35:46.866Z,11.20
2022-09-28T13:38:13.384Z,11.20
2022-09-28T13:40:40.001Z,11.10
2022-09-28T13:43:06.546Z,11.10
2022-09-28T13:45:33.100Z,11.00
2022-09-28T13:47:59.621Z,11.00
2022-09-28T13:50:26.153Z,11.00
2022-09-28T13:52:52.687Z,10.90
2022-09-28T13:55:19.216Z,10.90
2022-09-28T13:57:45.749Z,10.90
2022-09-28T14:00:12.326Z,10.90
2022-09-28T14:02:38.903Z,10.90
2022-09-28T14:05:05.470Z,10.90
2022-09-28T14:07:32.014Z,10.90
2022-09-28T14:09:58.572Z,10.80
2022-09-28T14:12:25.108Z,10.80
2022-09-28T14:14:51.647Z,10.80
2022-09-28T14:17:18.187Z,10.90
2022-09-28T14:19:44.747Z,10.90
2022-09-28T14:22:11.272Z,10.90
2022-09-28T14:24:37.805Z,10.90
2022-09-28T14:27:04.479Z,10.90
2022-09-28T14:29:31.063Z,10.80
2022-09-28T14:31:57.604Z,10.80
2022-09-28T14:34:24.127Z,10.70
2022-09-28T14:36:50.710Z,10.70
2022-09-28T14:39:17.230Z,10.60
2022-09-28T14:41:43.761Z,10.60
2022-09-28T14:44:10.382Z,10.60
2022-09-28T14:46:37.016Z,10.60
2022-09-28T14:49:03.576Z,10.70
2022-09-28T14:51:30.180Z,10.70
2022-09-28T14:53:56.786Z,10.80
2022-09-28T14:56:23.295Z,10.90
2022-09-28T14:58:49.824Z,10.90
2022-09-28T15:01:16.403Z,11.00
2022-09-28T15:03:42.902Z,11.00
2022-09-28T15:06:09.435Z,10.90
2022-09-28T15:08:36.026Z,10.90
2022-09-28T15:11:02.510Z,10.90
2022-09-28T15:13:29.072Z,10.90
2022-09-28T15:15:55.657Z,10.90
2022-09-28T15:18:22.172Z,10.80
2022-09-28T15:20:48.709Z,10.80
2022-09-28T15:23:15.434Z,10.70
2022-09-28T15:25:41.995Z,10.60
2022-09-28T15:28:08.545Z,10.60
2022-09-28T15:30:35.054Z,10.50
2022-09-28T15:33:01.697Z,10.50
2022-09-28T15:35:28.228Z,10.50
2022-09-28T15:37:54.744Z,10.40
2022-09-28T15:40:21.385Z,10.40
2022-09-28T15:42:47.968Z,10.40
2022-09-28T15:45:14.534Z,10.30
2022-09-28T15:47:41.057Z,10.30
2022-09-28T15:50:07.594Z,10.30
2022-09-28T15:52:34.153Z,10.30
2022-09-28T15:55:00.661Z,10.30
2022-09-28T15:57:27.170Z,10.20
2022-09-28T15:59:53.742Z,10.20
2022-09-28T16:02:20.319Z,10.10
2022-09-28T16:04:46.914Z,10.10
2022-09-28T16:07:13.450Z,10.00
2022-09-28T16:09:41.255Z,10.00
2022-09-28T16:12:07.855Z,10.00
2022-09-28T16:14:34.450Z,10.00
2022-09-28T16:17:01.043Z,9.90
2022-09-28T16:19:27.517Z,9.90
2022-09-28T16:21:54.234Z,9.90
2022-09-28T16:24:20.705Z,9.90
2022-09-28T16:26:47.252Z,9.80
2022-09-28T16:29:13.732Z,9.80
2022-09-28T16:31:40.285Z,9.70
2022-09-28T16:34:10.787Z,9.60
2022-09-28T16:36:38.206Z,9.60
2022-09-28T16:39:04.750Z,9.50
2022-09-28T16:41:31.220Z,9.50
2022-09-28T16:43:57.741Z,9.50
2022-09-28T16:46:24.334Z,9.50
2022-09-28T16:48:50.981Z,9.50
2022-09-28T16:51:17.465Z,9.40
2022-09-28T16:53:43.962Z,9.40
2022-09-28T16:56:11.460Z,9.30
2022-09-28T16:58:37.978Z,9.30
2022-09-28T17:01:04.554Z,9.20
2022-09-28T17:03:31.177Z,9.10
2022-09-28T17:05:57.847Z,9.10
2022-09-28T17:08:24.380Z,9.00
2022-09-28T17:11:13.117Z,8.90
2022-09-28T17:13:37.457Z,8.80
2022-09-28T17:16:04.122Z,8.80
2022-09-28T17:18:30.724Z,8.80
2022-09-28T17:20:57.323Z,8.70
2022-09-28T17:23:23.921Z,8.80
2022-09-28T17:25:50.414Z,8.80
2022-09-28T17:28:17.131Z,8.80
2022-09-28T17:30:43.783Z,8.90
2022-09-28T17:33:10.306Z,8.90
2022-09-28T17:35:39.659Z,8.90
2022-09-28T17:38:06.347Z,8.90
2022-09-28T17:40:32.965Z,8.90
2022-09-28T17:42:59.635Z,8.90
2022-09-28T17:45:26.289Z,8.90
2022-09-28T17:47:52.905Z,8.90
2022-09-28T17:50:19.430Z,8.90
2022-09-28T17:52:45.963Z,8.90
2022-09-28T17:55:12.530Z,8.90
2022-09-28T17:57:39.070Z,8.90
2022-09-28T18:00:05.589Z,8.90
2022-09-28T18:02:32.202Z,8.80
2022-09-28T18:04:59.095Z,8.80
2022-09-28T18:07:25.966Z,8.90
2022-09-28T18:09:52.518Z,8.90
2022-09-28T18:12:19.053Z,8.90
2022-09-28T18:14:45.553Z,8.90
2022-09-28T18:17:12.084Z,8.90
2022-09-28T18:19:38.610Z,8.90
2022-09-28T18:22:05.163Z,8.90
2022-09-28T18:24:31.669Z,8.90
2022-09-28T18:26:58.259Z,8.80
2022-09-28T18:29:24.868Z,8.90
2022-09-28T18:31:51.391Z,8.80
2022-09-28T18:34:18.319Z,8.90
2022-09-28T18:36:44.970Z,8.80
2022-09-28T18:39:13.729Z,8.90
2022-09-28T18:41:40.304Z,8.90
2022-09-28T18:44:06.889Z,8.80
2022-09-28T18:46:33.508Z,8.90
2022-09-28T18:49:00.048Z,8.90
2022-09-28T18:51:26.577Z,8.90
2022-09-28T18:53:53.117Z,8.90
2022-09-28T18:56:19.604Z,8.80
2022-09-28T18:58:46.226Z,8.80
2022-09-28T19:01:28.991Z,8.90
2022-09-28T19:03:56.238Z,8.80
2022-09-28T19:06:22.960Z,8.90
2022-09-28T19:08:49.510Z,8.80
2022-09-28T19:11:15.982Z,8.80
2022-09-28T19:13:42.533Z,8.80
2022-09-28T19:16:09.099Z,8.90
2022-09-28T19:18:35.629Z,8.80
2022-09-28T19:21:02.178Z,8.80
2022-09-28T19:23:28.657Z,8.80
2022-09-28T19:25:55.212Z,8.80
2022-09-28T19:28:21.740Z,8.80
2022-09-28T19:30:48.375Z,8.80
2022-09-28T19:33:15.071Z,8.80
2022-09-28T19:35:41.594Z,8.80
2022-09-28T19:38:08.231Z,8.80
2022-09-28T19:40:34.800Z,8.80
2022-09-28T19:43:01.302Z,8.80
2022-09-28T19:45:27.794Z,8.80
2022-09-28T19:47:59.238Z,8.80
2022-09-28T19:50:26.019Z,8.80
2022-09-28T19:52:52.590Z,8.80
2022-09-28T19:55:19.066Z,8.80
2022-09-28T19:57:45.600Z,8.80
2022-09-28T20:00:12.190Z,8.80
2022-09-28T20:02:38.811Z,8.80
2022-09-28T20:05:05.355Z,8.80
2022-09-28T20:07:31.839Z,8.80
2022-09-28T20:09:58.359Z,8.80
2022-09-28T20:12:25.165Z,8.80
2022-09-28T20:14:51.670Z,8.80
2022-09-28T20:17:18.351Z,8.80
2022-09-28T20:19:44.965Z,8.80
2022-09-28T20:22:11.486Z,8.70
2022-09-28T20:24:39.503Z,8.70
2022-09-28T20:27:06.025Z,8.70
2022-09-28T20:29:32.545Z,8.80
2022-09-28T20:31:59.071Z,8.80
2022-09-28T20:34:25.570Z,8.70
2022-09-28T20:36:52.320Z,8.70
2022-09-28T20:39:18.949Z,8.70
2022-09-28T20:41:45.616Z,8.70
2022-09-28T20:44:12.172Z,8.70
2022-09-28T20:46:38.763Z,8.70
2022-09-28T20:49:05.345Z,8.80
2022-09-28T20:51:31.991Z,8.70
2022-09-28T20:53:58.502Z,8.70
2022-09-28T20:56:25.038Z,8.70
2022-09-28T20:58:51.587Z,8.70
2022-09-28T21:01:18.241Z,8.70
2022-09-28T21:03:44.855Z,8.80
2022-09-28T21:06:12.405Z,8.70
2022-09-28T21:08:39.034Z,8.80
2022-09-28T21:11:05.597Z,8.70
2022-09-28T21:13:32.134Z,8.70
2022-09-28T21:15:58.694Z,8.70
2022-09-28T21:18:25.393Z,8.70
2022-09-28T21:20:51.898Z,8.70
2022-09-28T21:23:23.997Z,8.70
2022-09-28T21:25:51.368Z,8.70
2022-09-28T21:28:17.869Z,8.70
2022-09-28T21:30:44.756Z,8.70
2022-09-28T21:33:11.273Z,8.70
2022-09-28T21:35:37.859Z,8.70
2022-09-28T21:38:04.420Z,8.70
2022-09-28T21:40:30.949Z,8.70
2022-09-28T21:42:57.553Z,8.70
2022-09-28T21:45:24.045Z,8.70
2022-09-28T21:47:50.593Z,8.70
2022-09-28T21:50:17.088Z,8.70
2022-09-28T21:52:43.654Z,8.70
2022-09-28T21:55:10.250Z,8.70
2022-09-28T21:57:36.728Z,8.70
2022-09-28T22:00:03.451Z,8.60
2022-09-28T22:02:30.026Z,8.60
2022-09-28T22:04:56.617Z,8.60
2022-09-28T22:07:23.166Z,8.60
2022-09-28T22:09:53.419Z,8.70
2022-09-28T22:12:20.166Z,8.60
2022-09-28T22:14:46.686Z,8.60
2022-09-28T22:17:13.221Z,8.70
2022-09-28T22:19:39.722Z,8.70
2022-09-28T22:22:06.300Z,8.60
2022-09-28T22:24:32.831Z,8.60
2022-09-28T22:26:59.353Z,8.60
2022-09-28T22:29:25.917Z,8.60
2022-09-28T22:31:52.422Z,8.60
2022-09-28T22:34:19.168Z,8.60
2022-09-28T22:36:45.785Z,8.60
2022-09-28T22:39:12.367Z,8.60
2022-09-28T22:41:38.885Z,8.60
2022-09-28T22:44:05.381Z,8.60
2022-09-28T22:46:32.131Z,8.60
2022-09-28T22:48:59.005Z,8.60
2022-09-28T22:51:25.481Z,8.60
2022-09-28T22:53:52.127Z,8.60
2022-09-28T22:56:19.269Z,8.60
2022-09-28T22:58:46.013Z,8.50
2022-09-28T23:01:12.548Z,8.50
2022-09-28T23:03:39.087Z,8.50
2022-09-28T23:06:05.603Z,8.50
2022-09-28T23:08:32.145Z,8.50
2022-09-28T23:10:58.721Z,8.50
2022-09-28T23:13:25.268Z,8.50
2022-09-28T23:15:51.859Z,8.50
2022-09-28T23:18:18.416Z,8.50
2022-09-28T23:20:45.013Z,8.50
2022-09-28T23:23:11.584Z,8.50
2022-09-28T23:25:38.147Z,8.50
2022-09-28T23:28:04.716Z,8.50
2022-09-28T23:30:31.236Z,8.40
2022-09-28T23:32:57.761Z,8.50
2022-09-28T23:35:24.420Z,8.50
2022-09-28T23:37:50.966Z,8.40
2022-09-28T23:40:17.812Z,8.40
2022-09-28T23:42:44.394Z,8.40
2022-09-28T23:45:10.930Z,8.40
2022-09-28T23:47:37.481Z,8.40
2022-09-28T23:50:03.977Z,8.30
2022-09-28T23:52:30.461Z,8.40
2022-09-28T23:54:56.962Z,8.40
2022-09-28T23:57:26.335Z,8.30
2022-09-28T23:59:53.001Z,8.30
